Terminal Aerodrome Forecast
Issued by NWS St Louis, MO

Home | Current Version | Previous Version | Text Only | Print | Product List | Glossary On
Versions: 1 2 3 4 5 6 7 8 9 10 11 12 13 14 15 16 17 18 19 20 21 22 23
000
FTUS43 KLSX 281137
TAFCOU
TAF
KCOU 281137Z 2812/2912 32006KT 2SM BR SCT002 BKN250
      TEMPO 2812/2814 1/4SM FG VV002
     FM281400 32007KT 4SM BR BKN250
     FM281500 32007KT P6SM BKN250
     FM281700 31008KT P6SM SCT035
     FM282300 28010KT P6SM FEW250=

USA.gov is the U.S. government's official web portal to all federal, state and local government web resources and services.